sensor_id;sensor_type;location;lat;lon;timestamp;temperature;humidity
29547;DHT22;40782;47.264;11.330;2023-07-28T00:00:49;13.20;99.90
29547;DHT22;40782;47.264;11.330;2023-07-28T00:03:16;13.20;99.90
29547;DHT22;40782;47.264;11.330;2023-07-28T00:05:44;13.30;99.90
29547;DHT22;40782;47.264;11.330;2023-07-28T00:08:11;13.30;99.90
29547;DHT22;40782;47.264;11.330;2023-07-28T00:10:39;13.30;99.90
29547;DHT22;40782;47.264;11.330;2023-07-28T00:13:06;13.10;99.90
29547;DHT22;40782;47.264;11.330;2023-07-28T00:15:33;13.10;99.90
29547;DHT22;40782;47.264;11.330;2023-07-28T00:18:00;13.20;99.90
29547;DHT22;40782;47.264;11.330;2023-07-28T00:20:27;13.20;99.90
29547;DHT22;40782;47.264;11.330;2023-07-28T00:22:55;13.10;99.90
29547;DHT22;40782;47.264;11.330;2023-07-28T00:25:22;13.00;99.90
29547;DHT22;40782;47.264;11.330;2023-07-28T00:27:49;12.90;99.90
29547;DHT22;40782;47.264;11.330;2023-07-28T00:30:16;13.00;99.90
29547;DHT22;40782;47.264;11.330;2023-07-28T00:32:43;13.00;99.90
29547;DHT22;40782;47.264;11.330;2023-07-28T00:35:10;13.00;99.90
29547;DHT22;40782;47.264;11.330;2023-07-28T00:37:37;13.10;99.90
29547;DHT22;40782;47.264;11.330;2023-07-28T00:40:06;13.10;99.90
29547;DHT22;40782;47.264;11.330;2023-07-28T00:42:33;13.10;99.90
29547;DHT22;40782;47.264;11.330;2023-07-28T00:45:00;13.00;99.90
29547;DHT22;40782;47.264;11.330;2023-07-28T00:47:26;12.80;99.90
29547;DHT22;40782;47.264;11.330;2023-07-28T00:49:53;12.70;99.90
29547;DHT22;40782;47.264;11.330;2023-07-28T00:52:20;12.70;99.90
29547;DHT22;40782;47.264;11.330;2023-07-28T00:54:47;12.60;99.90
29547;DHT22;40782;47.264;11.330;2023-07-28T00:57:15;12.70;99.90
29547;DHT22;40782;47.264;11.330;2023-07-28T00:59:44;12.70;99.90
29547;DHT22;40782;47.264;11.330;2023-07-28T01:02:11;12.80;99.90
29547;DHT22;40782;47.264;11.330;2023-07-28T01:04:38;12.80;99.90
29547;DHT22;40782;47.264;11.330;2023-07-28T01:07:07;12.80;99.90
29547;DHT22;40782;47.264;11.330;2023-07-28T01:09:37;12.80;99.90
29547;DHT22;40782;47.264;11.330;2023-07-28T01:12:07;12.70;99.90
29547;DHT22;40782;47.264;11.330;2023-07-28T01:14:36;12.60;99.90
29547;DHT22;40782;47.264;11.330;2023-07-28T01:17:03;12.50;99.90
29547;DHT22;40782;47.264;11.330;2023-07-28T01:19:30;12.50;99.90
29547;DHT22;40782;47.264;11.330;2023-07-28T01:21:59;12.50;99.90
29547;DHT22;40782;47.264;11.330;2023-07-28T01:24:29;12.50;99.90
29547;DHT22;40782;47.264;11.330;2023-07-28T01:27:03;12.40;99.90
29547;DHT22;40782;47.264;11.330;2023-07-28T01:29:29;12.50;99.90
29547;DHT22;40782;47.264;11.330;2023-07-28T01:31:58;12.60;99.90
29547;DHT22;40782;47.264;11.330;2023-07-28T01:34:25;12.60;99.90
29547;DHT22;40782;47.264;11.330;2023-07-28T01:36:52;12.60;99.90
29547;DHT22;40782;47.264;11.330;2023-07-28T01:39:19;12.70;99.90
29547;DHT22;40782;47.264;11.330;2023-07-28T01:41:47;12.60;99.90
29547;DHT22;40782;47.264;11.330;2023-07-28T01:44:15;12.60;99.90
29547;DHT22;40782;47.264;11.330;2023-07-28T01:46:41;12.50;99.90
29547;DHT22;40782;47.264;11.330;2023-07-28T01:49:08;12.40;99.90
29547;DHT22;40782;47.264;11.330;2023-07-28T01:51:35;12.40;99.90
29547;DHT22;40782;47.264;11.330;2023-07-28T01:54:02;12.40;99.90
29547;DHT22;40782;47.264;11.330;2023-07-28T01:56:29;12.50;99.90
29547;DHT22;40782;47.264;11.330;2023-07-28T01:58:56;12.40;99.90
29547;DHT22;40782;47.264;11.330;2023-07-28T02:01:24;12.20;99.90
29547;DHT22;40782;47.264;11.330;2023-07-28T02:03:51;12.10;99.90
29547;DHT22;40782;47.264;11.330;2023-07-28T02:06:18;12.20;99.90
29547;DHT22;40782;47.264;11.330;2023-07-28T02:08:45;12.20;99.90
29547;DHT22;40782;47.264;11.330;2023-07-28T02:11:12;12.20;99.90
29547;DHT22;40782;47.264;11.330;2023-07-28T02:13:39;12.30;99.90
29547;DHT22;40782;47.264;11.330;2023-07-28T02:16:05;12.30;99.90
29547;DHT22;40782;47.264;11.330;2023-07-28T02:18:34;12.20;99.90
29547;DHT22;40782;47.264;11.330;2023-07-28T02:21:01;12.30;99.90
29547;DHT22;40782;47.264;11.330;2023-07-28T02:23:27;12.30;99.90
29547;DHT22;40782;47.264;11.330;2023-07-28T02:25:55;12.30;99.90
29547;DHT22;40782;47.264;11.330;2023-07-28T02:28:22;12.30;99.90
29547;DHT22;40782;47.264;11.330;2023-07-28T02:30:49;12.20;99.90
29547;DHT22;40782;47.264;11.330;2023-07-28T02:33:16;12.20;99.90
29547;DHT22;40782;47.264;11.330;2023-07-28T02:35:44;12.20;99.90
29547;DHT22;40782;47.264;11.330;2023-07-28T02:38:11;12.20;99.90
29547;DHT22;40782;47.264;11.330;2023-07-28T02:40:38;12.20;99.90
29547;DHT22;40782;47.264;11.330;2023-07-28T02:43:04;12.20;99.90
29547;DHT22;40782;47.264;11.330;2023-07-28T02:45:31;12.20;99.90
29547;DHT22;40782;47.264;11.330;2023-07-28T02:47:59;12.30;99.90
29547;DHT22;40782;47.264;11.330;2023-07-28T02:50:25;12.30;99.90
29547;DHT22;40782;47.264;11.330;2023-07-28T02:53:36;12.20;99.90
29547;DHT22;40782;47.264;11.330;2023-07-28T02:56:03;12.10;99.90
29547;DHT22;40782;47.264;11.330;2023-07-28T02:58:30;12.10;99.90
29547;DHT22;40782;47.264;11.330;2023-07-28T03:00:57;12.20;99.90
29547;DHT22;40782;47.264;11.330;2023-07-28T03:03:24;12.20;99.90
29547;DHT22;40782;47.264;11.330;2023-07-28T03:05:51;12.20;99.90
29547;DHT22;40782;47.264;11.330;2023-07-28T03:08:19;12.30;99.90
29547;DHT22;40782;47.264;11.330;2023-07-28T03:10:47;12.30;99.90
29547;DHT22;40782;47.264;11.330;2023-07-28T03:13:14;12.30;99.90
29547;DHT22;40782;47.264;11.330;2023-07-28T03:15:41;12.20;99.90
29547;DHT22;40782;47.264;11.330;2023-07-28T03:18:08;12.20;99.90
29547;DHT22;40782;47.264;11.330;2023-07-28T03:20:35;12.20;99.90
29547;DHT22;40782;47.264;11.330;2023-07-28T03:23:02;12.30;99.90
29547;DHT22;40782;47.264;11.330;2023-07-28T03:25:29;12.30;99.90
29547;DHT22;40782;47.264;11.330;2023-07-28T03:27:57;12.30;99.90
29547;DHT22;40782;47.264;11.330;2023-07-28T03:30:24;12.40;99.90
29547;DHT22;40782;47.264;11.330;2023-07-28T03:32:51;12.40;99.90
29547;DHT22;40782;47.264;11.330;2023-07-28T03:35:18;12.40;99.90
29547;DHT22;40782;47.264;11.330;2023-07-28T03:37:45;12.20;99.90
29547;DHT22;40782;47.264;11.330;2023-07-28T03:40:11;12.10;99.90
29547;DHT22;40782;47.264;11.330;2023-07-28T03:42:38;12.10;99.90
29547;DHT22;40782;47.264;11.330;2023-07-28T03:45:07;12.20;99.90
29547;DHT22;40782;47.264;11.330;2023-07-28T03:47:34;12.20;99.90
29547;DHT22;40782;47.264;11.330;2023-07-28T03:50:02;12.30;99.90
29547;DHT22;40782;47.264;11.330;2023-07-28T03:52:29;12.20;99.90
29547;DHT22;40782;47.264;11.330;2023-07-28T03:54:56;12.20;99.90
29547;DHT22;40782;47.264;11.330;2023-07-28T03:57:23;12.10;99.90
29547;DHT22;40782;47.264;11.330;2023-07-28T03:59:50;12.00;99.90
29547;DHT22;40782;47.264;11.330;2023-07-28T04:02:18;11.90;99.90
29547;DHT22;40782;47.264;11.330;2023-07-28T04:04:45;11.90;99.90
29547;DHT22;40782;47.264;11.330;2023-07-28T04:07:12;11.90;99.90
29547;DHT22;40782;47.264;11.330;2023-07-28T04:09:39;11.90;99.90
29547;DHT22;40782;47.264;11.330;2023-07-28T04:12:06;11.90;99.90
29547;DHT22;40782;47.264;11.330;2023-07-28T04:14:33;11.90;99.90
29547;DHT22;40782;47.264;11.330;2023-07-28T04:17:00;11.90;99.90
29547;DHT22;40782;47.264;11.330;2023-07-28T04:19:28;12.00;99.90
29547;DHT22;40782;47.264;11.330;2023-07-28T04:21:56;12.00;99.90
29547;DHT22;40782;47.264;11.330;2023-07-28T04:24:23;12.10;99.90
29547;DHT22;40782;47.264;11.330;2023-07-28T04:26:50;12.20;99.90
29547;DHT22;40782;47.264;11.330;2023-07-28T04:29:17;12.20;99.90
29547;DHT22;40782;47.264;11.330;2023-07-28T04:31:44;12.20;99.90
29547;DHT22;40782;47.264;11.330;2023-07-28T04:34:11;12.30;99.90
29547;DHT22;40782;47.264;11.330;2023-07-28T04:36:39;12.40;99.90
29547;DHT22;40782;47.264;11.330;2023-07-28T04:39:06;12.40;99.90
29547;DHT22;40782;47.264;11.330;2023-07-28T04:41:33;12.40;99.90
29547;DHT22;40782;47.264;11.330;2023-07-28T04:44:01;12.40;99.90
29547;DHT22;40782;47.264;11.330;2023-07-28T04:46:28;12.50;99.90
29547;DHT22;40782;47.264;11.330;2023-07-28T04:48:56;12.60;99.90
29547;DHT22;40782;47.264;11.330;2023-07-28T04:51:23;12.50;99.90
29547;DHT22;40782;47.264;11.330;2023-07-28T04:53:52;12.50;99.90
29547;DHT22;40782;47.264;11.330;2023-07-28T04:56:19;12.60;99.90
29547;DHT22;40782;47.264;11.330;2023-07-28T04:58:46;12.50;99.90
29547;DHT22;40782;47.264;11.330;2023-07-28T05:01:13;12.50;99.90
29547;DHT22;40782;47.264;11.330;2023-07-28T05:03:41;12.50;99.90
29547;DHT22;40782;47.264;11.330;2023-07-28T05:06:08;12.60;99.90
29547;DHT22;40782;47.264;11.330;2023-07-28T05:08:35;12.60;99.90
29547;DHT22;40782;47.264;11.330;2023-07-28T05:11:04;12.70;99.90
29547;DHT22;40782;47.264;11.330;2023-07-28T05:13:31;12.80;99.90
29547;DHT22;40782;47.264;11.330;2023-07-28T05:15:58;12.80;99.90
29547;DHT22;40782;47.264;11.330;2023-07-28T05:18:25;12.90;99.90
29547;DHT22;40782;47.264;11.330;2023-07-28T05:20:52;13.00;99.90
29547;DHT22;40782;47.264;11.330;2023-07-28T05:23:20;13.00;99.90
29547;DHT22;40782;47.264;11.330;2023-07-28T05:25:47;13.00;99.90
29547;DHT22;40782;47.264;11.330;2023-07-28T05:28:16;13.20;99.90
29547;DHT22;40782;47.264;11.330;2023-07-28T05:30:43;13.30;99.90
29547;DHT22;40782;47.264;11.330;2023-07-28T05:33:10;13.40;99.90
29547;DHT22;40782;47.264;11.330;2023-07-28T05:35:37;13.40;99.90
29547;DHT22;40782;47.264;11.330;2023-07-28T05:38:04;13.50;99.90
29547;DHT22;40782;47.264;11.330;2023-07-28T05:40:31;13.40;99.90
29547;DHT22;40782;47.264;11.330;2023-07-28T05:42:58;13.40;99.90
29547;DHT22;40782;47.264;11.330;2023-07-28T05:45:27;13.40;99.90
29547;DHT22;40782;47.264;11.330;2023-07-28T05:47:54;13.40;99.90
29547;DHT22;40782;47.264;11.330;2023-07-28T05:50:21;13.50;99.90
29547;DHT22;40782;47.264;11.330;2023-07-28T05:52:48;13.60;99.90
29547;DHT22;40782;47.264;11.330;2023-07-28T05:55:16;13.70;99.90
29547;DHT22;40782;47.264;11.330;2023-07-28T05:57:43;13.80;99.90
29547;DHT22;40782;47.264;11.330;2023-07-28T06:00:11;14.00;99.90
29547;DHT22;40782;47.264;11.330;2023-07-28T06:02:39;14.00;99.90
29547;DHT22;40782;47.264;11.330;2023-07-28T06:05:07;13.80;99.90
29547;DHT22;40782;47.264;11.330;2023-07-28T06:07:34;13.70;99.90
29547;DHT22;40782;47.264;11.330;2023-07-28T06:10:01;13.70;99.90
29547;DHT22;40782;47.264;11.330;2023-07-28T06:12:28;13.70;99.90
29547;DHT22;40782;47.264;11.330;2023-07-28T06:14:55;13.70;99.90
29547;DHT22;40782;47.264;11.330;2023-07-28T06:17:22;13.70;99.90
29547;DHT22;40782;47.264;11.330;2023-07-28T06:19:50;13.70;99.90
29547;DHT22;40782;47.264;11.330;2023-07-28T06:22:18;13.70;99.90
29547;DHT22;40782;47.264;11.330;2023-07-28T06:24:45;13.70;99.90
29547;DHT22;40782;47.264;11.330;2023-07-28T06:27:12;13.70;99.90
29547;DHT22;40782;47.264;11.330;2023-07-28T06:29:39;13.80;99.90
29547;DHT22;40782;47.264;11.330;2023-07-28T06:32:07;13.80;99.90
29547;DHT22;40782;47.264;11.330;2023-07-28T06:34:34;13.90;99.90
29547;DHT22;40782;47.264;11.330;2023-07-28T06:37:02;14.00;99.90
29547;DHT22;40782;47.264;11.330;2023-07-28T06:39:30;14.10;99.90
29547;DHT22;40782;47.264;11.330;2023-07-28T06:41:57;14.10;99.90
29547;DHT22;40782;47.264;11.330;2023-07-28T06:44:24;14.20;99.90
29547;DHT22;40782;47.264;11.330;2023-07-28T06:46:51;14.10;99.90
29547;DHT22;40782;47.264;11.330;2023-07-28T06:49:18;14.20;99.90
29547;DHT22;40782;47.264;11.330;2023-07-28T06:51:45;14.20;99.90
29547;DHT22;40782;47.264;11.330;2023-07-28T06:54:13;14.30;99.90
29547;DHT22;40782;47.264;11.330;2023-07-28T06:56:40;14.20;99.90
29547;DHT22;40782;47.264;11.330;2023-07-28T06:59:07;14.40;99.90
29547;DHT22;40782;47.264;11.330;2023-07-28T07:01:35;14.50;99.90
29547;DHT22;40782;47.264;11.330;2023-07-28T07:04:02;14.70;99.90
29547;DHT22;40782;47.264;11.330;2023-07-28T07:06:30;14.80;99.90
29547;DHT22;40782;47.264;11.330;2023-07-28T07:08:57;14.80;99.90
29547;DHT22;40782;47.264;11.330;2023-07-28T07:11:25;14.90;99.90
29547;DHT22;40782;47.264;11.330;2023-07-28T07:13:52;14.90;99.90
29547;DHT22;40782;47.264;11.330;2023-07-28T07:16:19;15.10;99.90
29547;DHT22;40782;47.264;11.330;2023-07-28T07:18:47;15.20;99.90
29547;DHT22;40782;47.264;11.330;2023-07-28T07:21:14;15.30;99.90
29547;DHT22;40782;47.264;11.330;2023-07-28T07:23:41;15.50;99.90
29547;DHT22;40782;47.264;11.330;2023-07-28T07:26:08;15.60;99.90
29547;DHT22;40782;47.264;11.330;2023-07-28T07:28:36;15.70;99.90
29547;DHT22;40782;47.264;11.330;2023-07-28T07:31:03;15.90;99.90
29547;DHT22;40782;47.264;11.330;2023-07-28T07:33:30;15.90;99.90
29547;DHT22;40782;47.264;11.330;2023-07-28T07:35:58;16.00;99.90
29547;DHT22;40782;47.264;11.330;2023-07-28T07:38:25;16.10;99.90
29547;DHT22;40782;47.264;11.330;2023-07-28T07:40:52;16.20;99.90
29547;DHT22;40782;47.264;11.330;2023-07-28T07:43:19;16.20;99.90
29547;DHT22;40782;47.264;11.330;2023-07-28T07:45:48;16.30;99.90
29547;DHT22;40782;47.264;11.330;2023-07-28T07:48:17;16.30;99.90
29547;DHT22;40782;47.264;11.330;2023-07-28T07:50:44;16.40;99.90
29547;DHT22;40782;47.264;11.330;2023-07-28T07:53:11;16.50;99.90
29547;DHT22;40782;47.264;11.330;2023-07-28T07:55:38;16.60;99.90
29547;DHT22;40782;47.264;11.330;2023-07-28T07:58:05;16.70;99.90
29547;DHT22;40782;47.264;11.330;2023-07-28T08:00:32;16.90;99.90
29547;DHT22;40782;47.264;11.330;2023-07-28T08:03:00;16.90;99.90
29547;DHT22;40782;47.264;11.330;2023-07-28T08:05:28;16.90;99.90
29547;DHT22;40782;47.264;11.330;2023-07-28T08:07:55;17.10;99.90
29547;DHT22;40782;47.264;11.330;2023-07-28T08:10:22;17.20;99.90
29547;DHT22;40782;47.264;11.330;2023-07-28T08:12:49;17.30;99.90
29547;DHT22;40782;47.264;11.330;2023-07-28T08:15:16;17.40;99.90
29547;DHT22;40782;47.264;11.330;2023-07-28T08:17:44;17.40;99.90
29547;DHT22;40782;47.264;11.330;2023-07-28T08:20:13;17.50;99.90
29547;DHT22;40782;47.264;11.330;2023-07-28T08:22:40;17.60;99.90
29547;DHT22;40782;47.264;11.330;2023-07-28T08:25:08;17.70;99.90
29547;DHT22;40782;47.264;11.330;2023-07-28T08:27:35;17.80;99.90
29547;DHT22;40782;47.264;11.330;2023-07-28T08:30:02;17.90;99.90
29547;DHT22;40782;47.264;11.330;2023-07-28T08:32:29;17.80;99.90
29547;DHT22;40782;47.264;11.330;2023-07-28T08:34:56;18.00;99.90
29547;DHT22;40782;47.264;11.330;2023-07-28T08:37:25;18.00;99.90
29547;DHT22;40782;47.264;11.330;2023-07-28T08:39:52;18.10;99.90
29547;DHT22;40782;47.264;11.330;2023-07-28T08:42:20;18.30;99.90
29547;DHT22;40782;47.264;11.330;2023-07-28T08:44:47;18.50;99.90
29547;DHT22;40782;47.264;11.330;2023-07-28T08:47:17;18.40;99.90
29547;DHT22;40782;47.264;11.330;2023-07-28T08:49:44;18.60;99.90
29547;DHT22;40782;47.264;11.330;2023-07-28T08:52:14;18.60;99.90
29547;DHT22;40782;47.264;11.330;2023-07-28T08:54:44;18.80;99.90
29547;DHT22;40782;47.264;11.330;2023-07-28T08:57:11;18.90;99.90
29547;DHT22;40782;47.264;11.330;2023-07-28T08:59:39;19.00;99.90
29547;DHT22;40782;47.264;11.330;2023-07-28T09:02:13;19.00;99.90
29547;DHT22;40782;47.264;11.330;2023-07-28T09:04:41;19.20;99.90
29547;DHT22;40782;47.264;11.330;2023-07-28T09:07:08;19.20;99.90
29547;DHT22;40782;47.264;11.330;2023-07-28T09:09:35;19.30;99.90
29547;DHT22;40782;47.264;11.330;2023-07-28T09:12:05;19.30;99.90
29547;DHT22;40782;47.264;11.330;2023-07-28T09:14:33;19.50;99.90
29547;DHT22;40782;47.264;11.330;2023-07-28T09:17:06;19.60;99.90
29547;DHT22;40782;47.264;11.330;2023-07-28T09:19:34;19.50;99.90
29547;DHT22;40782;47.264;11.330;2023-07-28T09:22:01;19.60;99.90
29547;DHT22;40782;47.264;11.330;2023-07-28T09:24:30;19.70;99.90
29547;DHT22;40782;47.264;11.330;2023-07-28T09:26:58;19.90;99.90
29547;DHT22;40782;47.264;11.330;2023-07-28T09:29:27;20.00;99.90
29547;DHT22;40782;47.264;11.330;2023-07-28T09:32:02;20.10;99.90
29547;DHT22;40782;47.264;11.330;2023-07-28T09:34:29;20.20;99.90
29547;DHT22;40782;47.264;11.330;2023-07-28T09:36:58;20.30;99.90
29547;DHT22;40782;47.264;11.330;2023-07-28T09:39:25;20.50;99.90
29547;DHT22;40782;47.264;11.330;2023-07-28T09:41:53;20.50;99.90
29547;DHT22;40782;47.264;11.330;2023-07-28T09:44:24;20.80;99.90
29547;DHT22;40782;47.264;11.330;2023-07-28T09:46:53;20.80;99.90
29547;DHT22;40782;47.264;11.330;2023-07-28T09:49:21;20.90;99.90
29547;DHT22;40782;47.264;11.330;2023-07-28T09:51:49;21.10;99.90
29547;DHT22;40782;47.264;11.330;2023-07-28T09:54:20;21.20;99.90
29547;DHT22;40782;47.264;11.330;2023-07-28T09:56:53;21.50;99.90
29547;DHT22;40782;47.264;11.330;2023-07-28T09:59:22;21.50;99.90
29547;DHT22;40782;47.264;11.330;2023-07-28T10:01:52;21.50;99.90
29547;DHT22;40782;47.264;11.330;2023-07-28T10:04:20;21.60;99.90
29547;DHT22;40782;47.264;11.330;2023-07-28T10:06:47;21.50;99.90
29547;DHT22;40782;47.264;11.330;2023-07-28T10:09:14;21.50;99.90
29547;DHT22;40782;47.264;11.330;2023-07-28T10:11:42;21.60;99.90
29547;DHT22;40782;47.264;11.330;2023-07-28T10:14:09;21.60;99.90
29547;DHT22;40782;47.264;11.330;2023-07-28T10:16:37;21.60;99.90
29547;DHT22;40782;47.264;11.330;2023-07-28T10:19:06;21.60;99.90
29547;DHT22;40782;47.264;11.330;2023-07-28T10:21:39;21.80;99.90
29547;DHT22;40782;47.264;11.330;2023-07-28T10:24:06;21.90;99.90
29547;DHT22;40782;47.264;11.330;2023-07-28T10:26:36;21.90;99.90
29547;DHT22;40782;47.264;11.330;2023-07-28T10:29:10;22.20;99.90
29547;DHT22;40782;47.264;11.330;2023-07-28T10:31:37;22.60;99.70
29547;DHT22;40782;47.264;11.330;2023-07-28T10:34:17;23.30;99.30
29547;DHT22;40782;47.264;11.330;2023-07-28T10:36:44;23.80;98.70
29547;DHT22;40782;47.264;11.330;2023-07-28T10:39:14;23.80;98.00
29547;DHT22;40782;47.264;11.330;2023-07-28T10:41:59;24.00;97.10
29547;DHT22;40782;47.264;11.330;2023-07-28T10:44:27;23.80;96.50
29547;DHT22;40782;47.264;11.330;2023-07-28T10:46:54;24.10;97.20
29547;DHT22;40782;47.264;11.330;2023-07-28T10:49:23;24.70;96.70
29547;DHT22;40782;47.264;11.330;2023-07-28T10:51:51;25.10;96.20
29547;DHT22;40782;47.264;11.330;2023-07-28T10:54:18;25.20;95.90
29547;DHT22;40782;47.264;11.330;2023-07-28T10:56:45;25.30;95.70
29547;DHT22;40782;47.264;11.330;2023-07-28T10:59:12;25.30;95.40
29547;DHT22;40782;47.264;11.330;2023-07-28T11:01:41;25.40;96.50
29547;DHT22;40782;47.264;11.330;2023-07-28T11:04:09;25.20;96.30
29547;DHT22;40782;47.264;11.330;2023-07-28T11:06:38;25.40;95.40
29547;DHT22;40782;47.264;11.330;2023-07-28T11:09:11;24.90;95.00
29547;DHT22;40782;47.264;11.330;2023-07-28T11:11:40;24.90;94.10
29547;DHT22;40782;47.264;11.330;2023-07-28T11:14:07;24.90;95.10
29547;DHT22;40782;47.264;11.330;2023-07-28T11:16:35;24.80;94.30
29547;DHT22;40782;47.264;11.330;2023-07-28T11:19:03;24.90;93.90
29547;DHT22;40782;47.264;11.330;2023-07-28T11:21:30;25.40;93.20
29547;DHT22;40782;47.264;11.330;2023-07-28T11:23:59;25.70;92.90
29547;DHT22;40782;47.264;11.330;2023-07-28T11:26:26;26.00;92.70
29547;DHT22;40782;47.264;11.330;2023-07-28T11:28:54;26.40;93.60
29547;DHT22;40782;47.264;11.330;2023-07-28T11:31:23;26.80;93.60
29547;DHT22;40782;47.264;11.330;2023-07-28T11:33:51;27.10;92.40
29547;DHT22;40782;47.264;11.330;2023-07-28T11:36:21;26.70;91.80
29547;DHT22;40782;47.264;11.330;2023-07-28T11:38:48;26.50;92.10
29547;DHT22;40782;47.264;11.330;2023-07-28T11:41:17;26.60;92.50
29547;DHT22;40782;47.264;11.330;2023-07-28T11:43:45;26.50;91.70
29547;DHT22;40782;47.264;11.330;2023-07-28T11:46:32;26.60;91.40
29547;DHT22;40782;47.264;11.330;2023-07-28T11:49:06;26.70;91.40
29547;DHT22;40782;47.264;11.330;2023-07-28T11:51:36;26.40;91.00
29547;DHT22;40782;47.264;11.330;2023-07-28T11:54:04;26.30;91.30
29547;DHT22;40782;47.264;11.330;2023-07-28T11:56:32;26.40;90.00
29547;DHT22;40782;47.264;11.330;2023-07-28T11:59:00;26.50;90.50
29547;DHT22;40782;47.264;11.330;2023-07-28T12:01:29;26.60;90.30
29547;DHT22;40782;47.264;11.330;2023-07-28T12:03:56;26.30;91.20
29547;DHT22;40782;47.264;11.330;2023-07-28T12:06:24;26.20;91.50
29547;DHT22;40782;47.264;11.330;2023-07-28T12:08:51;26.20;90.70
29547;DHT22;40782;47.264;11.330;2023-07-28T12:11:20;25.90;90.40
29547;DHT22;40782;47.264;11.330;2023-07-28T12:13:50;25.90;91.00
29547;DHT22;40782;47.264;11.330;2023-07-28T12:16:38;26.10;91.00
29547;DHT22;40782;47.264;11.330;2023-07-28T12:19:06;26.10;91.30
29547;DHT22;40782;47.264;11.330;2023-07-28T12:21:33;25.80;91.50
29547;DHT22;40782;47.264;11.330;2023-07-28T12:24:00;25.70;92.30
29547;DHT22;40782;47.264;11.330;2023-07-28T12:26:27;25.60;92.20
29547;DHT22;40782;47.264;11.330;2023-07-28T12:28:56;25.70;91.80
29547;DHT22;40782;47.264;11.330;2023-07-28T12:31:23;25.60;91.90
29547;DHT22;40782;47.264;11.330;2023-07-28T12:33:50;25.50;93.40
29547;DHT22;40782;47.264;11.330;2023-07-28T12:36:17;25.40;93.40
29547;DHT22;40782;47.264;11.330;2023-07-28T12:38:45;25.50;93.30
29547;DHT22;40782;47.264;11.330;2023-07-28T12:41:12;25.40;93.10
29547;DHT22;40782;47.264;11.330;2023-07-28T12:43:39;25.40;93.10
29547;DHT22;40782;47.264;11.330;2023-07-28T12:46:08;25.50;93.00
29547;DHT22;40782;47.264;11.330;2023-07-28T12:48:35;25.40;92.90
29547;DHT22;40782;47.264;11.330;2023-07-28T12:51:02;25.20;95.10
29547;DHT22;40782;47.264;11.330;2023-07-28T12:53:29;25.20;95.60
29547;DHT22;40782;47.264;11.330;2023-07-28T12:55:56;25.30;94.80
29547;DHT22;40782;47.264;11.330;2023-07-28T12:58:23;25.40;96.30
29547;DHT22;40782;47.264;11.330;2023-07-28T13:00:51;25.50;96.00
29547;DHT22;40782;47.264;11.330;2023-07-28T13:03:20;25.60;96.30
29547;DHT22;40782;47.264;11.330;2023-07-28T13:05:48;26.00;97.80
29547;DHT22;40782;47.264;11.330;2023-07-28T13:08:20;26.60;97.70
29547;DHT22;40782;47.264;11.330;2023-07-28T13:10:48;27.40;95.10
29547;DHT22;40782;47.264;11.330;2023-07-28T13:13:15;27.90;95.80
29547;DHT22;40782;47.264;11.330;2023-07-28T13:15:42;28.30;94.50
29547;DHT22;40782;47.264;11.330;2023-07-28T13:18:09;28.40;93.00
29547;DHT22;40782;47.264;11.330;2023-07-28T13:20:37;27.90;93.40
29547;DHT22;40782;47.264;11.330;2023-07-28T13:23:05;27.60;93.50
29547;DHT22;40782;47.264;11.330;2023-07-28T13:25:32;27.60;94.00
29547;DHT22;40782;47.264;11.330;2023-07-28T13:27:59;27.80;94.40
29547;DHT22;40782;47.264;11.330;2023-07-28T13:30:26;28.00;94.50
29547;DHT22;40782;47.264;11.330;2023-07-28T13:32:53;28.10;94.30
29547;DHT22;40782;47.264;11.330;2023-07-28T13:35:20;27.90;94.00
29547;DHT22;40782;47.264;11.330;2023-07-28T13:37:48;27.70;94.00
29547;DHT22;40782;47.264;11.330;2023-07-28T13:40:16;27.60;93.30
29547;DHT22;40782;47.264;11.330;2023-07-28T13:42:43;27.20;93.20
29547;DHT22;40782;47.264;11.330;2023-07-28T13:45:10;27.00;91.30
29547;DHT22;40782;47.264;11.330;2023-07-28T13:47:37;26.60;91.20
29547;DHT22;40782;47.264;11.330;2023-07-28T13:50:05;26.50;91.40
29547;DHT22;40782;47.264;11.330;2023-07-28T13:52:32;26.30;92.30
29547;DHT22;40782;47.264;11.330;2023-07-28T13:55:01;26.30;92.30
29547;DHT22;40782;47.264;11.330;2023-07-28T13:57:28;26.30;92.50
29547;DHT22;40782;47.264;11.330;2023-07-28T13:59:55;26.20;92.50
29547;DHT22;40782;47.264;11.330;2023-07-28T14:02:22;25.90;92.90
29547;DHT22;40782;47.264;11.330;2023-07-28T14:04:49;25.80;93.30
29547;DHT22;40782;47.264;11.330;2023-07-28T14:07:16;25.80;93.60
29547;DHT22;40782;47.264;11.330;2023-07-28T14:09:43;25.70;93.70
29547;DHT22;40782;47.264;11.330;2023-07-28T14:12:12;25.70;93.20
29547;DHT22;40782;47.264;11.330;2023-07-28T14:14:39;25.60;93.50
29547;DHT22;40782;47.264;11.330;2023-07-28T14:17:06;25.50;94.60
29547;DHT22;40782;47.264;11.330;2023-07-28T14:19:33;25.60;95.40
29547;DHT22;40782;47.264;11.330;2023-07-28T14:22:00;26.20;94.30
29547;DHT22;40782;47.264;11.330;2023-07-28T14:24:27;26.80;94.60
29547;DHT22;40782;47.264;11.330;2023-07-28T14:26:54;27.30;94.00
29547;DHT22;40782;47.264;11.330;2023-07-28T14:29:23;28.00;93.90
29547;DHT22;40782;47.264;11.330;2023-07-28T14:31:50;28.50;92.80
29547;DHT22;40782;47.264;11.330;2023-07-28T14:34:17;29.00;91.80
29547;DHT22;40782;47.264;11.330;2023-07-28T14:36:44;29.40;92.90
29547;DHT22;40782;47.264;11.330;2023-07-28T14:39:11;29.90;91.40
29547;DHT22;40782;47.264;11.330;2023-07-28T14:41:38;30.20;91.10
29547;DHT22;40782;47.264;11.330;2023-07-28T14:44:05;30.30;90.50
29547;DHT22;40782;47.264;11.330;2023-07-28T14:46:34;30.20;90.60
29547;DHT22;40782;47.264;11.330;2023-07-28T14:49:01;30.50;89.70
29547;DHT22;40782;47.264;11.330;2023-07-28T14:51:28;30.70;90.60
29547;DHT22;40782;47.264;11.330;2023-07-28T14:53:55;30.60;88.20
29547;DHT22;40782;47.264;11.330;2023-07-28T14:56:22;30.90;89.90
29547;DHT22;40782;47.264;11.330;2023-07-28T14:58:50;31.10;87.00
29547;DHT22;40782;47.264;11.330;2023-07-28T15:01:18;30.90;88.50
29547;DHT22;40782;47.264;11.330;2023-07-28T15:03:47;31.10;87.30
29547;DHT22;40782;47.264;11.330;2023-07-28T15:06:14;31.00;88.00
29547;DHT22;40782;47.264;11.330;2023-07-28T15:08:41;31.00;87.60
29547;DHT22;40782;47.264;11.330;2023-07-28T15:11:08;31.00;87.40
29547;DHT22;40782;47.264;11.330;2023-07-28T15:13:35;30.50;86.80
29547;DHT22;40782;47.264;11.330;2023-07-28T15:16:03;29.90;87.80
29547;DHT22;40782;47.264;11.330;2023-07-28T15:18:30;29.50;88.70